createdAt,value
2023-02-01T00:00:18.445Z,54.09
2023-02-01T00:01:50.283Z,54.13
2023-02-01T00:03:21.913Z,53.87
2023-02-01T00:04:53.367Z,53.81
2023-02-01T00:06:25.016Z,53.80
2023-02-01T00:07:56.514Z,53.68
2023-02-01T00:09:28.021Z,53.80
2023-02-01T00:11:02.925Z,53.80
2023-02-01T00:12:34.462Z,54.03
2023-02-01T00:14:06.034Z,53.85
2023-02-01T00:15:37.592Z,53.85
2023-02-01T00:17:09.307Z,54.38
2023-02-01T00:18:40.974Z,53.91
2023-02-01T00:20:12.540Z,54.25
2023-02-01T00:21:44.971Z,53.93
2023-02-01T00:23:16.516Z,54.16
2023-02-01T00:24:48.095Z,54.52
2023-02-01T00:26:20.646Z,54.71
2023-02-01T00:27:52.454Z,54.49
2023-02-01T00:29:24.144Z,54.23
2023-02-01T00:30:58.857Z,53.85
2023-02-01T00:32:30.544Z,54.17
2023-02-01T00:34:02.094Z,53.94
2023-02-01T00:35:34.934Z,54.37
2023-02-01T00:37:06.490Z,54.04
2023-02-01T00:38:38.781Z,54.27
2023-02-01T00:40:10.671Z,54.55
2023-02-01T00:41:42.457Z,53.97
2023-02-01T00:43:13.962Z,54.36
2023-02-01T00:44:45.504Z,53.93
2023-02-01T00:46:17.543Z,53.96
2023-02-01T00:47:49.067Z,53.71
2023-02-01T00:49:20.827Z,53.60
2023-02-01T00:50:52.364Z,54.11
2023-02-01T00:52:23.937Z,54.17
2023-02-01T00:53:55.591Z,53.86
2023-02-01T00:55:27.246Z,53.61
2023-02-01T00:56:58.760Z,53.77
2023-02-01T00:58:30.459Z,54.04
2023-02-01T01:00:01.911Z,54.11
2023-02-01T01:01:33.502Z,53.72
2023-02-01T01:03:18.597Z,53.98
2023-02-01T01:04:50.099Z,54.35
2023-02-01T01:06:22.679Z,54.16
2023-02-01T01:07:54.410Z,54.23
2023-02-01T01:09:25.865Z,54.62
2023-02-01T01:10:57.484Z,54.33
2023-02-01T01:12:29.079Z,54.16
2023-02-01T01:14:00.840Z,54.40
2023-02-01T01:15:32.780Z,54.64
2023-02-01T01:17:04.239Z,54.43
2023-02-01T01:18:35.880Z,54.97
2023-02-01T01:20:07.809Z,54.90
2023-02-01T01:21:39.337Z,54.90
2023-02-01T01:23:11.134Z,55.00
2023-02-01T01:24:42.645Z,54.45
2023-02-01T01:26:18.258Z,54.38
2023-02-01T01:27:50.263Z,54.47
2023-02-01T01:29:22.205Z,54.91
2023-02-01T01:30:53.798Z,54.79
2023-02-01T01:32:25.853Z,55.42
2023-02-01T01:33:58.346Z,54.90
2023-02-01T01:35:30.988Z,54.72
2023-02-01T01:37:02.746Z,54.89
2023-02-01T01:38:34.525Z,54.45
2023-02-01T01:40:06.512Z,54.48
2023-02-01T01:41:38.112Z,54.45
2023-02-01T01:43:15.958Z,54.50
2023-02-01T01:44:57.727Z,54.41
2023-02-01T01:46:33.265Z,54.81
2023-02-01T01:48:04.902Z,54.77
2023-02-01T01:49:36.794Z,55.11
2023-02-01T01:51:09.722Z,55.24
2023-02-01T01:52:41.367Z,54.67
2023-02-01T01:54:21.233Z,54.75
2023-02-01T01:55:52.879Z,54.56
2023-02-01T01:57:25.912Z,54.90
2023-02-01T01:58:57.488Z,54.88
2023-02-01T02:00:29.100Z,54.39
2023-02-01T02:02:00.599Z,54.74
2023-02-01T02:03:35.632Z,54.61
2023-02-01T02:05:07.396Z,55.02
2023-02-01T02:06:46.426Z,55.18
2023-02-01T02:08:18.540Z,55.01
2023-02-01T02:10:00.108Z,55.00
2023-02-01T02:11:32.912Z,54.95
2023-02-01T02:13:04.381Z,55.05
2023-02-01T02:14:36.352Z,55.13
2023-02-01T02:16:07.953Z,54.91
2023-02-01T02:17:40.056Z,55.04
2023-02-01T02:19:14.576Z,55.03
2023-02-01T02:20:49.489Z,55.44
2023-02-01T02:22:21.026Z,55.19
2023-02-01T02:23:55.348Z,55.56
2023-02-01T02:25:33.031Z,55.13
2023-02-01T02:27:07.012Z,55.54
2023-02-01T02:28:38.590Z,55.11
2023-02-01T02:30:37.186Z,54.98
2023-02-01T02:32:38.056Z,55.10
2023-02-01T02:34:12.470Z,55.41
2023-02-01T02:35:48.597Z,54.93
2023-02-01T02:37:40.359Z,55.07
2023-02-01T02:39:31.182Z,55.42
2023-02-01T02:41:36.858Z,55.22
2023-02-01T02:43:26.929Z,55.08
2023-02-01T02:45:19.300Z,55.76
2023-02-01T02:47:09.201Z,55.59
2023-02-01T02:48:43.910Z,55.53
2023-02-01T02:50:33.825Z,55.13
2023-02-01T02:52:33.774Z,55.31
2023-02-01T02:54:33.640Z,55.30
2023-02-01T02:56:24.044Z,55.42
2023-02-01T02:58:14.270Z,55.23
2023-02-01T03:00:04.497Z,55.26
2023-02-01T03:01:55.026Z,55.21
2023-02-01T03:03:45.133Z,55.97
2023-02-01T03:05:19.771Z,55.45
2023-02-01T03:06:51.330Z,55.71
2023-02-01T03:08:26.715Z,55.16
2023-02-01T03:09:58.281Z,55.35
2023-02-01T03:11:49.668Z,55.22
2023-02-01T03:13:39.827Z,55.51
2023-02-01T03:15:11.658Z,55.56
2023-02-01T03:16:52.984Z,55.44
2023-02-01T03:18:42.782Z,55.60
2023-02-01T03:20:14.632Z,55.61
2023-02-01T03:21:50.837Z,55.51
2023-02-01T03:23:23.083Z,55.63
2023-02-01T03:24:58.905Z,55.54
2023-02-01T03:26:30.941Z,55.65
2023-02-01T03:28:03.698Z,55.60
2023-02-01T03:29:39.670Z,55.78
2023-02-01T03:31:11.328Z,55.54
2023-02-01T03:33:01.167Z,55.11
2023-02-01T03:34:32.762Z,55.74
2023-02-01T03:36:11.300Z,55.58
2023-02-01T03:37:42.841Z,55.59
2023-02-01T03:39:18.216Z,55.03
2023-02-01T03:40:53.229Z,55.22
2023-02-01T03:42:26.185Z,55.12
2023-02-01T03:44:18.847Z,55.83
2023-02-01T03:45:55.308Z,55.27
2023-02-01T03:47:27.763Z,55.75
2023-02-01T03:48:59.716Z,55.68
2023-02-01T03:50:31.159Z,55.35
2023-02-01T03:52:02.712Z,55.93
2023-02-01T03:53:34.308Z,55.70
2023-02-01T03:55:06.720Z,55.67
2023-02-01T03:56:38.584Z,55.58
2023-02-01T03:58:10.497Z,55.40
2023-02-01T03:59:42.632Z,55.41
2023-02-01T04:01:14.291Z,55.10
2023-02-01T04:02:45.852Z,55.55
2023-02-01T04:04:21.097Z,55.32
2023-02-01T04:05:52.838Z,55.10
2023-02-01T04:07:24.349Z,54.89
2023-02-01T04:08:55.895Z,55.28
2023-02-01T04:10:27.387Z,55.54
2023-02-01T04:11:59.049Z,54.96
2023-02-01T04:13:30.997Z,55.54
2023-02-01T04:15:02.539Z,55.46
2023-02-01T04:16:34.571Z,55.39
2023-02-01T04:18:06.261Z,55.41
2023-02-01T04:19:37.770Z,55.55
2023-02-01T04:21:09.282Z,55.54
2023-02-01T04:22:40.836Z,55.59
2023-02-01T04:24:12.450Z,55.07
2023-02-01T04:25:44.024Z,55.44
2023-02-01T04:27:15.474Z,54.95
2023-02-01T04:28:48.842Z,55.45
2023-02-01T04:30:20.523Z,55.50
2023-02-01T04:31:52.351Z,55.52
2023-02-01T04:33:23.980Z,55.10
2023-02-01T04:34:55.522Z,55.33
2023-02-01T04:36:27.114Z,55.13
2023-02-01T04:37:58.660Z,55.07
2023-02-01T04:39:30.175Z,55.44
2023-02-01T04:41:01.758Z,54.86
2023-02-01T04:42:33.366Z,55.03
2023-02-01T04:44:04.984Z,55.38
2023-02-01T04:45:36.541Z,54.85
2023-02-01T04:47:08.099Z,55.45
2023-02-01T04:48:39.617Z,55.29
2023-02-01T04:50:11.509Z,55.47
2023-02-01T04:51:43.231Z,54.91
2023-02-01T04:53:17.491Z,54.96
2023-02-01T04:54:48.986Z,55.21
2023-02-01T04:56:20.561Z,55.30
2023-02-01T04:57:53.489Z,54.83
2023-02-01T04:59:25.002Z,54.94
2023-02-01T05:00:57.052Z,54.96
2023-02-01T05:02:28.684Z,55.27
2023-02-01T05:04:00.200Z,55.63
2023-02-01T05:05:31.754Z,55.21
2023-02-01T05:07:03.324Z,55.43
2023-02-01T05:08:34.915Z,55.81
2023-02-01T05:10:06.579Z,55.48
2023-02-01T05:11:56.607Z,55.39
2023-02-01T05:13:46.805Z,54.84
2023-02-01T05:15:18.279Z,55.24
2023-02-01T05:16:49.809Z,55.20
2023-02-01T05:18:21.405Z,55.20
2023-02-01T05:19:58.423Z,55.23
2023-02-01T05:21:29.862Z,55.57
2023-02-01T05:23:01.318Z,55.05
2023-02-01T05:24:32.795Z,55.22
2023-02-01T05:26:04.487Z,55.12
2023-02-01T05:27:36.145Z,55.05
2023-02-01T05:29:07.854Z,54.88
2023-02-01T05:30:42.065Z,54.95
2023-02-01T05:32:22.297Z,55.33
2023-02-01T05:33:54.500Z,54.75
2023-02-01T05:35:25.989Z,55.19
2023-02-01T05:36:57.465Z,55.59
2023-02-01T05:38:30.936Z,55.02
2023-02-01T05:40:02.483Z,55.64
2023-02-01T05:41:33.983Z,55.18
2023-02-01T05:43:05.501Z,55.37
2023-02-01T05:44:37.217Z,55.08
2023-02-01T05:46:11.709Z,54.88
2023-02-01T05:47:43.767Z,55.42
2023-02-01T05:49:15.293Z,55.08
2023-02-01T05:50:47.051Z,54.92
2023-02-01T05:52:21.437Z,55.01
2023-02-01T05:53:52.977Z,55.02
2023-02-01T05:55:24.466Z,55.00
2023-02-01T05:56:56.059Z,55.83
2023-02-01T06:00:00.499Z,55.33
2023-02-01T06:01:32.441Z,55.68
2023-02-01T06:03:04.356Z,55.16
2023-02-01T06:04:35.946Z,55.35
2023-02-01T06:06:07.546Z,55.13
2023-02-01T06:07:39.068Z,54.81
2023-02-01T06:09:10.631Z,54.58
2023-02-01T06:10:42.173Z,55.03
2023-02-01T06:12:13.701Z,54.78
2023-02-01T06:13:45.311Z,54.94
2023-02-01T06:15:16.935Z,54.93
2023-02-01T06:16:49.392Z,55.03
2023-02-01T06:18:20.963Z,54.86
2023-02-01T06:19:52.505Z,55.27
2023-02-01T06:21:26.961Z,55.41
2023-02-01T06:22:59.161Z,54.77
2023-02-01T06:24:30.708Z,55.14
2023-02-01T06:26:03.280Z,55.00
2023-02-01T06:27:35.424Z,55.15
2023-02-01T06:29:13.381Z,55.11
2023-02-01T06:30:47.261Z,55.57
2023-02-01T06:32:18.909Z,55.01
2023-02-01T06:33:50.805Z,55.29
2023-02-01T06:35:22.361Z,55.14
2023-02-01T06:36:54.389Z,55.44
2023-02-01T06:38:27.331Z,55.10
2023-02-01T06:39:58.902Z,55.19
2023-02-01T06:41:30.536Z,55.70
2023-02-01T06:43:02.232Z,54.71
2023-02-01T06:44:33.920Z,55.02
2023-02-01T06:46:06.467Z,54.85
2023-02-01T06:47:38.240Z,54.89
2023-02-01T06:49:09.929Z,54.74
2023-02-01T06:50:47.680Z,55.20
2023-02-01T06:52:19.294Z,55.30
2023-02-01T06:53:50.957Z,54.99
2023-02-01T06:55:22.496Z,54.93
2023-02-01T06:56:54.136Z,54.43
2023-02-01T06:58:29.211Z,54.86
2023-02-01T07:00:00.923Z,54.45
2023-02-01T07:01:32.510Z,54.94
2023-02-01T07:03:06.718Z,55.22
2023-02-01T07:04:39.333Z,55.00
2023-02-01T07:06:10.890Z,55.54
2023-02-01T07:07:42.543Z,55.67
2023-02-01T07:09:23.417Z,55.51
2023-02-01T07:10:55.259Z,55.87
2023-02-01T07:12:26.953Z,55.98
2023-02-01T07:13:58.744Z,55.17
2023-02-01T07:15:30.342Z,54.92
2023-02-01T07:17:01.908Z,55.44
2023-02-01T07:18:33.644Z,55.63
2023-02-01T07:20:05.392Z,55.74
2023-02-01T07:21:36.968Z,55.54
2023-02-01T07:23:10.008Z,55.45
2023-02-01T07:24:41.543Z,55.45
2023-02-01T07:26:14.229Z,55.39
2023-02-01T07:27:47.645Z,55.60
2023-02-01T07:29:19.661Z,55.18
2023-02-01T07:30:54.362Z,55.55
2023-02-01T07:32:26.032Z,55.18
2023-02-01T07:33:58.814Z,55.54
2023-02-01T07:35:30.378Z,55.81
2023-02-01T07:37:01.863Z,56.08
2023-02-01T07:38:33.413Z,55.85
2023-02-01T07:40:05.273Z,55.31
2023-02-01T07:41:36.787Z,55.26
2023-02-01T07:43:08.981Z,55.30
2023-02-01T07:44:40.648Z,55.04
2023-02-01T07:46:12.264Z,55.03
2023-02-01T07:47:43.864Z,54.69
2023-02-01T07:49:15.432Z,54.89
2023-02-01T07:50:47.084Z,54.81
2023-02-01T07:52:20.779Z,54.63
2023-02-01T07:53:53.068Z,54.88
2023-02-01T07:55:25.992Z,55.14
2023-02-01T07:57:03.421Z,54.86
2023-02-01T07:58:34.969Z,54.91
2023-02-01T08:00:25.336Z,54.71
2023-02-01T08:01:59.472Z,55.11
2023-02-01T08:08:30.793Z,54.70
2023-02-01T08:10:02.636Z,55.05
2023-02-01T08:11:34.300Z,55.08
2023-02-01T08:13:05.847Z,55.02
2023-02-01T08:14:37.347Z,54.93
2023-02-01T08:16:09.329Z,54.80
2023-02-01T08:17:40.979Z,54.66
2023-02-01T08:19:12.558Z,54.39
2023-02-01T08:25:16.052Z,54.49
2023-02-01T08:26:47.837Z,54.49
2023-02-01T08:28:19.529Z,54.43
2023-02-01T08:29:51.197Z,54.23
2023-02-01T08:31:24.063Z,54.25
2023-02-01T08:32:55.853Z,54.06
2023-02-01T08:34:27.612Z,54.10
2023-02-01T08:36:01.220Z,54.12
2023-02-01T08:37:32.840Z,53.91
2023-02-01T08:39:07.293Z,53.75
2023-02-01T08:40:38.800Z,53.77
2023-02-01T08:42:28.694Z,53.81
2023-02-01T08:44:00.359Z,53.84
2023-02-01T08:45:31.967Z,54.10
2023-02-01T08:47:03.870Z,54.10
2023-02-01T08:48:35.583Z,53.78
2023-02-01T08:50:07.358Z,53.81
2023-02-01T08:51:38.853Z,53.75
2023-02-01T08:53:10.379Z,53.65
2023-02-01T08:54:42.959Z,53.59
2023-02-01T08:56:15.018Z,53.67
2023-02-01T08:57:46.659Z,53.76
2023-02-01T08:59:18.303Z,53.86
2023-02-01T09:00:49.937Z,53.64
2023-02-01T09:02:21.438Z,53.68
2023-02-01T09:03:53.127Z,53.64
2023-02-01T09:05:34.999Z,53.54
2023-02-01T09:07:12.425Z,53.83
2023-02-01T09:08:44.026Z,53.67
2023-02-01T09:10:17.259Z,53.74
2023-02-01T09:11:51.497Z,53.60
2023-02-01T09:13:23.573Z,53.86
2023-02-01T09:14:56.221Z,53.75
2023-02-01T09:16:27.968Z,53.40
2023-02-01T09:17:59.593Z,53.60
2023-02-01T09:19:31.225Z,53.58
2023-02-01T09:21:09.124Z,53.80
2023-02-01T09:22:40.600Z,53.47
2023-02-01T09:24:12.352Z,53.36
2023-02-01T09:25:43.970Z,53.73
2023-02-01T09:27:15.720Z,53.39
2023-02-01T09:28:47.395Z,53.23
2023-02-01T09:30:19.045Z,53.49
2023-02-01T09:32:02.960Z,53.92
2023-02-01T09:33:35.305Z,53.64
2023-02-01T09:35:07.016Z,54.02
2023-02-01T09:36:38.624Z,54.07
2023-02-01T09:38:10.202Z,53.36
2023-02-01T09:39:42.966Z,53.73
2023-02-01T09:41:23.351Z,53.63
2023-02-01T09:42:57.515Z,53.60
2023-02-01T09:44:50.703Z,53.19
2023-02-01T09:46:31.382Z,53.36
2023-02-01T09:48:15.308Z,53.39
2023-02-01T09:49:52.519Z,53.62
2023-02-01T09:51:28.037Z,53.76
2023-02-01T09:53:13.307Z,53.49
2023-02-01T09:55:10.816Z,53.74
2023-02-01T09:56:57.673Z,52.94
2023-02-01T09:58:36.964Z,52.71
2023-02-01T10:00:28.873Z,52.74
2023-02-01T10:02:03.042Z,52.72
2023-02-01T10:03:35.256Z,52.98
2023-02-01T10:05:07.773Z,52.75
2023-02-01T10:06:48.514Z,53.64
2023-02-01T10:08:33.643Z,52.85
2023-02-01T10:10:12.613Z,52.79
2023-02-01T10:11:55.636Z,52.50
2023-02-01T10:13:33.286Z,52.22
2023-02-01T10:15:16.107Z,52.76
2023-02-01T10:16:50.233Z,52.28
2023-02-01T10:18:25.272Z,52.59
2023-02-01T10:20:09.187Z,52.72
2023-02-01T10:21:47.540Z,52.15
2023-02-01T10:23:33.413Z,52.41
2023-02-01T10:25:09.263Z,52.63
2023-02-01T10:26:43.026Z,52.08
2023-02-01T10:28:15.835Z,52.50
2023-02-01T10:29:55.426Z,52.44
2023-02-01T10:31:27.787Z,52.44
2023-02-01T10:33:16.367Z,51.95
2023-02-01T10:34:49.999Z,51.95
2023-02-01T10:36:22.994Z,52.71
2023-02-01T10:37:54.496Z,52.53
2023-02-01T10:39:26.051Z,51.49
2023-02-01T10:41:00.859Z,52.00
2023-02-01T10:42:32.330Z,51.63
2023-02-01T10:44:08.749Z,52.17
2023-02-01T10:45:41.312Z,52.25
2023-02-01T10:47:12.888Z,51.77
2023-02-01T10:48:44.431Z,51.38
2023-02-01T10:50:48.621Z,51.39
2023-02-01T10:52:23.443Z,51.45
2023-02-01T10:53:56.908Z,51.98
2023-02-01T10:55:34.721Z,51.98
2023-02-01T10:57:11.839Z,51.51
2023-02-01T10:58:44.528Z,51.72
2023-02-01T11:00:22.648Z,51.69
2023-02-01T11:02:06.891Z,50.96
2023-02-01T11:03:42.272Z,51.23
2023-02-01T11:05:20.035Z,51.17
2023-02-01T11:06:59.370Z,50.70
2023-02-01T11:08:33.867Z,51.43
2023-02-01T11:10:05.736Z,51.09
2023-02-01T11:11:49.769Z,51.22
2023-02-01T11:13:21.389Z,50.79
2023-02-01T11:14:55.971Z,50.71
2023-02-01T11:16:31.883Z,50.87
2023-02-01T11:18:09.506Z,51.43
2023-02-01T11:19:45.221Z,51.21
2023-02-01T11:21:16.733Z,51.23
2023-02-01T11:22:54.786Z,50.81
2023-02-01T11:24:26.755Z,50.51
2023-02-01T11:25:59.193Z,50.90
2023-02-01T11:27:30.776Z,50.57
2023-02-01T11:29:06.301Z,50.65
2023-02-01T11:30:39.550Z,50.25
2023-02-01T11:32:11.413Z,50.39
2023-02-01T11:33:46.616Z,51.05
2023-02-01T11:35:20.232Z,50.29
2023-02-01T11:36:52.021Z,49.92
2023-02-01T11:38:26.560Z,50.14
2023-02-01T11:39:58.932Z,50.62
2023-02-01T11:41:31.309Z,50.30
2023-02-01T11:43:23.698Z,50.39
2023-02-01T11:45:13.915Z,50.36
2023-02-01T11:49:22.818Z,50.43
2023-02-01T11:50:57.198Z,50.25
2023-02-01T11:52:28.804Z,50.46
2023-02-01T11:54:13.275Z,50.48
2023-02-01T11:55:48.463Z,50.10
2023-02-01T11:57:35.308Z,49.75
2023-02-01T11:59:13.628Z,49.65
2023-02-01T12:00:59.292Z,49.29
2023-02-01T12:02:42.268Z,49.47
2023-02-01T12:04:20.355Z,48.86
2023-02-01T12:05:56.780Z,49.63
2023-02-01T12:07:28.378Z,48.71
2023-02-01T12:09:03.112Z,48.86
2023-02-01T12:11:10.270Z,49.50
2023-02-01T12:12:45.342Z,48.86
2023-02-01T12:14:36.627Z,48.82
2023-02-01T12:16:11.242Z,48.56
2023-02-01T12:17:43.000Z,48.50
2023-02-01T12:19:23.687Z,48.77
2023-02-01T12:21:00.669Z,48.61
2023-02-01T12:22:43.675Z,48.50
2023-02-01T12:24:32.119Z,47.91
2023-02-01T12:26:14.390Z,47.82
2023-02-01T12:27:56.419Z,47.83
2023-02-01T12:29:38.262Z,47.91
2023-02-01T12:31:14.336Z,47.79
2023-02-01T12:32:55.082Z,46.93
2023-02-01T12:34:39.053Z,47.41
2023-02-01T12:36:28.752Z,47.08
2023-02-01T12:38:29.710Z,47.25
2023-02-01T12:40:07.501Z,46.94
2023-02-01T12:41:46.157Z,46.89
2023-02-01T12:43:22.824Z,46.61
2023-02-01T12:44:58.331Z,46.91
2023-02-01T12:46:34.365Z,46.51
2023-02-01T12:48:22.279Z,46.50
2023-02-01T12:49:53.963Z,46.64
2023-02-01T12:51:30.093Z,46.49
2023-02-01T12:53:08.939Z,46.23
2023-02-01T12:54:47.054Z,46.09
2023-02-01T12:56:33.631Z,45.80
2023-02-01T12:58:08.424Z,46.18
2023-02-01T12:59:41.288Z,46.10
2023-02-01T13:01:22.882Z,46.49
2023-02-01T13:03:01.853Z,45.94
2023-02-01T13:04:35.071Z,45.94
2023-02-01T13:06:08.376Z,46.09
2023-02-01T13:07:44.957Z,46.27
2023-02-01T13:09:35.043Z,46.05
2023-02-01T13:11:16.673Z,46.24
2023-02-01T13:13:03.271Z,45.78
2023-02-01T13:14:37.013Z,45.42
2023-02-01T13:16:11.529Z,44.87
2023-02-01T13:17:44.481Z,44.75
2023-02-01T13:19:16.473Z,44.97
2023-02-01T13:20:59.854Z,44.75
2023-02-01T13:22:32.707Z,44.59
2023-02-01T13:24:04.471Z,44.72
2023-02-01T13:25:38.720Z,44.34
2023-02-01T13:27:14.199Z,44.46
2023-02-01T13:28:47.468Z,44.11
2023-02-01T13:30:25.520Z,44.27
2023-02-01T13:32:18.577Z,44.28
2023-02-01T13:34:08.706Z,44.38
2023-02-01T13:35:50.703Z,44.44
2023-02-01T13:37:31.326Z,44.09
2023-02-01T13:39:30.995Z,44.45
2023-02-01T13:41:22.753Z,44.15
2023-02-01T13:42:55.499Z,44.14
2023-02-01T13:46:53.445Z,43.80
2023-02-01T13:48:29.162Z,43.30
2023-02-01T13:50:01.957Z,43.62
2023-02-01T13:51:38.177Z,43.74
2023-02-01T13:53:12.245Z,43.50
2023-02-01T13:54:43.837Z,43.59
2023-02-01T13:58:45.318Z,43.68
2023-02-01T14:00:25.985Z,43.18
2023-02-01T14:01:57.430Z,43.15
2023-02-01T14:03:44.826Z,43.68
2023-02-01T14:05:25.704Z,43.25
2023-02-01T14:06:59.222Z,43.33
2023-02-01T14:08:38.453Z,43.20
2023-02-01T14:10:29.190Z,42.71
2023-02-01T14:12:21.283Z,43.22
2023-02-01T14:13:53.132Z,42.75
2023-02-01T14:15:28.071Z,42.54
2023-02-01T14:17:02.910Z,42.94
2023-02-01T14:18:34.533Z,42.75
2023-02-01T14:20:30.029Z,42.92
2023-02-01T14:22:02.685Z,42.13
2023-02-01T14:23:38.629Z,42.38
2023-02-01T14:25:14.433Z,42.63
2023-02-01T14:26:46.928Z,42.84
2023-02-01T14:28:24.578Z,42.43
2023-02-01T14:30:00.805Z,42.18
2023-02-01T14:31:33.537Z,43.28
2023-02-01T14:33:34.137Z,42.52
2023-02-01T14:35:09.261Z,42.63
2023-02-01T14:36:43.390Z,42.89
2023-02-01T14:38:15.716Z,43.04
2023-02-01T14:39:47.371Z,42.85
2023-02-01T14:41:26.911Z,42.92
2023-02-01T14:42:58.819Z,42.69
2023-02-01T14:44:31.373Z,42.92
2023-02-01T14:46:03.115Z,42.68
2023-02-01T14:47:35.335Z,42.74
2023-02-01T14:49:07.290Z,42.32
2023-02-01T14:50:42.053Z,42.15
2023-02-01T14:52:14.590Z,42.00
2023-02-01T14:53:47.937Z,42.07
2023-02-01T14:55:26.165Z,42.20
2023-02-01T14:56:58.271Z,42.40
2023-02-01T14:58:34.687Z,42.44
2023-02-01T15:00:08.559Z,42.75
2023-02-01T15:01:40.495Z,42.18
2023-02-01T15:03:25.129Z,42.62
2023-02-01T15:04:57.418Z,42.46
2023-02-01T15:06:32.609Z,42.36
2023-02-01T15:08:14.060Z,42.30
2023-02-01T15:09:46.649Z,42.31
2023-02-01T15:11:18.301Z,42.33
2023-02-01T15:12:51.216Z,42.26
2023-02-01T15:14:22.779Z,42.24
2023-02-01T15:16:01.491Z,42.52
2023-02-01T15:17:35.158Z,42.70
2023-02-01T15:19:10.921Z,42.45
2023-02-01T15:21:05.898Z,42.50
2023-02-01T15:22:34.472Z,42.45
2023-02-01T15:24:13.069Z,42.44
2023-02-01T15:25:46.436Z,42.43
2023-02-01T15:27:18.794Z,42.50
2023-02-01T15:28:50.350Z,42.25
2023-02-01T15:30:22.173Z,42.30
2023-02-01T15:31:53.963Z,42.11
2023-02-01T15:33:25.927Z,42.17
2023-02-01T15:34:57.460Z,42.29
2023-02-01T15:36:29.903Z,42.19
2023-02-01T15:38:19.862Z,42.28
2023-02-01T15:40:10.235Z,42.52
2023-02-01T15:41:41.859Z,42.26
2023-02-01T15:43:13.513Z,42.52
2023-02-01T15:44:47.215Z,42.28
2023-02-01T15:46:21.802Z,42.48
2023-02-01T15:47:54.065Z,42.43
2023-02-01T15:49:27.206Z,42.64
2023-02-01T15:50:58.809Z,42.37
2023-02-01T15:52:35.678Z,42.55
2023-02-01T15:54:08.698Z,42.22
2023-02-01T15:55:43.218Z,42.86
2023-02-01T15:57:19.347Z,42.94
2023-02-01T15:58:51.888Z,42.93
2023-02-01T16:00:28.015Z,42.86
2023-02-01T16:02:00.110Z,43.26
2023-02-01T16:03:40.630Z,43.10
2023-02-01T16:05:30.058Z,43.00
2023-02-01T16:07:02.879Z,42.60
2023-02-01T16:08:37.732Z,43.39
2023-02-01T16:10:26.164Z,42.59
2023-02-01T16:11:58.763Z,42.69
2023-02-01T16:13:30.412Z,43.53
2023-02-01T16:15:02.407Z,43.03
2023-02-01T16:16:33.929Z,43.56
2023-02-01T16:18:06.090Z,43.07
2023-02-01T16:19:37.699Z,43.47
2023-02-01T16:21:09.725Z,43.67
2023-02-01T16:22:41.663Z,43.27
2023-02-01T16:24:13.314Z,43.51
2023-02-01T16:25:44.961Z,43.35
2023-02-01T16:27:16.493Z,42.76
2023-02-01T16:28:48.160Z,43.45
2023-02-01T16:30:24.199Z,43.15
2023-02-01T16:31:55.711Z,43.29
2023-02-01T16:33:27.432Z,43.27
2023-02-01T16:34:58.963Z,43.43
2023-02-01T16:36:30.807Z,43.36
2023-02-01T16:38:14.561Z,43.31
2023-02-01T16:39:46.347Z,43.29
2023-02-01T16:41:19.056Z,43.13
2023-02-01T16:42:52.531Z,43.27
2023-02-01T16:44:24.230Z,43.45
2023-02-01T16:45:56.603Z,43.73
2023-02-01T16:47:28.203Z,43.09
2023-02-01T16:49:00.224Z,43.56
2023-02-01T16:50:32.393Z,43.83
2023-02-01T16:52:04.024Z,43.72
2023-02-01T16:53:48.385Z,44.16
2023-02-01T16:55:25.650Z,44.15
2023-02-01T16:56:57.585Z,43.78
2023-02-01T16:58:29.075Z,43.64
2023-02-01T17:00:17.988Z,43.73
2023-02-01T17:01:54.172Z,43.92
2023-02-01T17:03:25.794Z,43.79
2023-02-01T17:04:58.026Z,44.29
2023-02-01T17:06:30.482Z,43.88
2023-02-01T17:08:05.674Z,44.21
2023-02-01T17:09:37.366Z,43.81
2023-02-01T17:11:08.980Z,44.06
2023-02-01T17:12:40.702Z,44.26
2023-02-01T17:14:15.189Z,44.32
2023-02-01T17:15:49.277Z,44.19
2023-02-01T17:17:32.846Z,44.00
2023-02-01T17:19:13.490Z,44.44
2023-02-01T17:20:45.235Z,43.96
2023-02-01T17:22:17.125Z,43.83
2023-02-01T17:23:48.705Z,44.59
2023-02-01T17:25:21.293Z,44.46
2023-02-01T17:26:53.061Z,44.46
2023-02-01T17:28:24.714Z,44.07
2023-02-01T17:29:57.233Z,44.56
2023-02-01T17:31:28.836Z,44.65
2023-02-01T17:33:07.635Z,44.16
2023-02-01T17:34:45.125Z,44.67
2023-02-01T17:36:17.372Z,44.37
2023-02-01T17:37:49.507Z,44.64
2023-02-01T17:39:39.387Z,44.52
2023-02-01T17:41:14.388Z,44.66
2023-02-01T17:42:46.068Z,44.75
2023-02-01T17:44:17.769Z,44.19
2023-02-01T17:45:53.127Z,44.42
2023-02-01T17:47:24.727Z,44.53
2023-02-01T17:48:56.372Z,44.18
2023-02-01T17:50:28.395Z,44.01
2023-02-01T17:52:01.545Z,44.15
2023-02-01T17:53:34.268Z,44.13
2023-02-01T17:55:23.699Z,44.19
2023-02-01T17:56:56.626Z,44.31
2023-02-01T17:58:30.692Z,44.71
2023-02-01T18:00:02.668Z,44.81
2023-02-01T18:01:34.418Z,44.92
2023-02-01T18:03:06.045Z,44.84
2023-02-01T18:04:37.893Z,44.67
2023-02-01T18:06:12.861Z,44.61
2023-02-01T18:07:44.551Z,44.35
2023-02-01T18:09:16.400Z,44.52
2023-02-01T18:10:48.812Z,44.96
2023-02-01T18:12:21.027Z,44.88
2023-02-01T18:13:55.568Z,44.52
2023-02-01T18:15:28.258Z,44.97
2023-02-01T18:16:59.943Z,44.96
2023-02-01T18:18:33.853Z,44.94
2023-02-01T18:20:05.649Z,45.04
2023-02-01T18:21:38.060Z,44.87
2023-02-01T18:23:15.921Z,45.03
2023-02-01T18:24:47.541Z,44.94
2023-02-01T18:26:19.251Z,45.14
2023-02-01T18:27:53.837Z,44.80
2023-02-01T18:29:25.515Z,44.75
2023-02-01T18:30:57.215Z,45.05
2023-02-01T18:32:28.809Z,44.36
2023-02-01T18:34:00.381Z,44.80
2023-02-01T18:35:32.196Z,44.33
2023-02-01T18:37:03.725Z,44.64
2023-02-01T18:38:35.340Z,44.75
2023-02-01T18:40:07.487Z,45.09
2023-02-01T18:41:40.609Z,44.45
2023-02-01T18:43:12.472Z,44.98
2023-02-01T18:44:44.171Z,45.26
2023-02-01T18:46:16.058Z,45.09
2023-02-01T18:47:47.912Z,44.80
2023-02-01T18:49:19.936Z,45.07
2023-02-01T18:50:57.656Z,45.05
2023-02-01T18:52:29.343Z,45.16
2023-02-01T18:54:00.935Z,44.98
2023-02-01T18:55:35.425Z,44.79
2023-02-01T18:57:07.018Z,44.75
2023-02-01T18:58:38.775Z,45.14
2023-02-01T19:00:11.147Z,45.10
2023-02-01T19:01:44.679Z,45.00
2023-02-01T19:03:16.764Z,45.00
2023-02-01T19:04:48.355Z,44.69
2023-02-01T19:06:20.196Z,44.98
2023-02-01T19:07:51.893Z,44.84
2023-02-01T19:09:23.485Z,45.04
2023-02-01T19:10:55.271Z,45.20
2023-02-01T19:12:26.912Z,45.44
2023-02-01T19:13:58.742Z,45.12
2023-02-01T19:15:30.352Z,45.20
2023-02-01T19:17:01.941Z,45.27
2023-02-01T19:18:33.467Z,45.31
2023-02-01T19:20:05.245Z,45.25
2023-02-01T19:21:37.508Z,45.38
2023-02-01T19:23:09.051Z,45.48
2023-02-01T19:24:40.631Z,45.52
2023-02-01T19:26:12.851Z,45.49
2023-02-01T19:27:44.604Z,45.46
2023-02-01T19:29:16.282Z,45.25
2023-02-01T19:30:47.897Z,45.35
2023-02-01T19:32:19.548Z,45.33
2023-02-01T19:33:51.041Z,45.49
2023-02-01T19:35:22.894Z,45.29
2023-02-01T19:36:55.303Z,45.29
2023-02-01T19:38:26.926Z,45.16
2023-02-01T19:40:01.506Z,45.16
2023-02-01T19:41:33.721Z,45.12
2023-02-01T19:43:05.253Z,45.29
2023-02-01T19:44:36.783Z,45.32
2023-02-01T19:46:08.709Z,45.08
2023-02-01T19:47:40.401Z,45.29
2023-02-01T19:49:12.753Z,45.70
2023-02-01T19:50:45.759Z,45.33
2023-02-01T19:52:17.798Z,45.36
2023-02-01T19:53:49.832Z,45.24
2023-02-01T19:55:22.004Z,45.30
2023-02-01T19:56:53.678Z,45.14
2023-02-01T19:58:25.702Z,45.23
2023-02-01T19:59:57.367Z,45.53
2023-02-01T20:01:28.209Z,45.51
2023-02-01T20:02:59.698Z,45.24
2023-02-01T20:04:31.210Z,45.22
2023-02-01T20:06:02.922Z,45.38
2023-02-01T20:07:34.916Z,45.49
2023-02-01T20:09:06.805Z,45.37
2023-02-01T20:10:43.895Z,45.13
2023-02-01T20:12:15.423Z,45.06
2023-02-01T20:13:47.057Z,45.15
2023-02-01T20:15:18.673Z,44.88
2023-02-01T20:16:50.313Z,45.54
2023-02-01T20:18:21.871Z,45.39
2023-02-01T20:19:53.376Z,45.27
2023-02-01T20:21:25.019Z,45.01
2023-02-01T20:22:56.560Z,45.50
2023-02-01T20:24:28.110Z,44.89
2023-02-01T20:26:05.626Z,45.15
2023-02-01T20:27:37.476Z,45.24
2023-02-01T20:29:09.428Z,45.33
2023-02-01T20:30:41.381Z,45.32
2023-02-01T20:32:13.276Z,45.14
2023-02-01T20:33:44.871Z,44.91
2023-02-01T20:35:16.648Z,44.98
2023-02-01T20:36:48.238Z,45.24
2023-02-01T20:38:20.121Z,45.45
2023-02-01T20:39:53.785Z,45.67